createdAt,value
2018-06-19T00:01:54.713Z,59.26
2018-06-19T00:04:24.545Z,59.15
2018-06-19T00:06:54.324Z,59.35
2018-06-19T00:09:24.134Z,59.38
2018-06-19T00:11:53.890Z,59.19
2018-06-19T00:14:23.693Z,58.95
2018-06-19T00:16:53.746Z,59.08
2018-06-19T00:19:23.602Z,59.07
2018-06-19T00:21:56.442Z,59.19
2018-06-19T00:24:26.241Z,59.06
2018-06-19T00:26:56.014Z,58.89
2018-06-19T00:29:25.969Z,58.93
2018-06-19T00:31:55.953Z,58.88
2018-06-19T00:34:25.779Z,58.93
2018-06-19T00:36:55.521Z,58.96
2018-06-19T00:39:25.296Z,59.28
2018-06-19T00:41:55.041Z,59.36
2018-06-19T00:44:24.771Z,59.28
2018-06-19T00:46:55.142Z,59.64
2018-06-19T00:49:24.885Z,59.52
2018-06-19T00:51:54.667Z,59.43
2018-06-19T00:54:24.421Z,59.23
2018-06-19T00:56:57.397Z,59.05
2018-06-19T00:59:27.578Z,58.73
2018-06-19T01:01:58.863Z,58.80
2018-06-19T01:04:28.655Z,58.46
2018-06-19T01:06:58.430Z,58.54
2018-06-19T01:09:28.169Z,58.55
2018-06-19T01:11:58.028Z,58.71
2018-06-19T01:14:27.777Z,58.59
2018-06-19T01:16:57.577Z,58.63
2018-06-19T01:19:27.301Z,58.61
2018-06-19T01:21:57.044Z,58.91
2018-06-19T01:24:26.821Z,59.21
2018-06-19T01:26:56.598Z,59.35
2018-06-19T01:29:26.367Z,59.24
2018-06-19T01:31:56.124Z,59.16
2018-06-19T01:34:26.302Z,59.34
2018-06-19T01:36:56.038Z,59.08
2018-06-19T01:39:25.809Z,59.36
2018-06-19T01:41:55.549Z,59.61
2018-06-19T01:44:25.345Z,59.45
2018-06-19T01:46:55.112Z,59.60
2018-06-19T01:49:24.853Z,59.63
2018-06-19T01:51:54.620Z,59.83
2018-06-19T01:54:24.353Z,59.91
2018-06-19T01:56:54.113Z,59.94
2018-06-19T01:59:23.856Z,59.99
2018-06-19T02:01:53.621Z,60.13
2018-06-19T02:04:23.373Z,60.35
2018-06-19T02:06:53.155Z,60.53
2018-06-19T02:09:22.889Z,60.53
2018-06-19T02:11:52.625Z,60.32
2018-06-19T02:14:22.413Z,60.24
2018-06-19T02:16:52.173Z,60.46
2018-06-19T02:19:21.910Z,60.60
2018-06-19T02:21:51.733Z,60.72
2018-06-19T02:24:21.493Z,60.75
2018-06-19T02:26:51.282Z,60.76
2018-06-19T02:29:21.053Z,60.98
2018-06-19T02:31:51.163Z,60.86
2018-06-19T02:34:20.962Z,60.89
2018-06-19T02:36:50.711Z,61.15
2018-06-19T02:39:20.795Z,61.35
2018-06-19T02:41:50.541Z,61.20
2018-06-19T02:44:20.341Z,61.62
2018-06-19T02:46:50.072Z,61.62
2018-06-19T02:49:19.804Z,61.77
2018-06-19T02:51:49.582Z,61.89
2018-06-19T02:54:19.327Z,62.02
2018-06-19T02:56:49.070Z,62.01
2018-06-19T02:59:18.856Z,62.10
2018-06-19T03:01:48.593Z,62.33
2018-06-19T03:04:18.375Z,62.36
2018-06-19T03:06:48.117Z,62.28
2018-06-19T03:09:18.269Z,62.38
2018-06-19T03:11:48.013Z,62.87
2018-06-19T03:14:17.799Z,62.91
2018-06-19T03:16:47.547Z,62.55
2018-06-19T03:19:17.407Z,62.30
2018-06-19T03:21:47.170Z,62.04
2018-06-19T03:24:16.909Z,61.63
2018-06-19T03:26:46.705Z,61.52
2018-06-19T03:29:16.491Z,61.50
2018-06-19T03:31:46.265Z,61.20
2018-06-19T03:34:15.999Z,61.30
2018-06-19T03:36:45.759Z,61.46
2018-06-19T03:39:15.540Z,61.28
2018-06-19T03:41:45.409Z,60.90
2018-06-19T03:44:15.206Z,60.77
2018-06-19T03:46:44.951Z,60.79
2018-06-19T03:49:14.711Z,60.58
2018-06-19T03:51:44.800Z,60.09
2018-06-19T03:54:14.537Z,59.69
2018-06-19T03:56:44.325Z,59.89
2018-06-19T03:59:14.075Z,59.94
2018-06-19T04:01:43.824Z,59.59
2018-06-19T04:04:13.611Z,59.57
2018-06-19T04:06:43.380Z,59.42
2018-06-19T04:09:13.121Z,59.28
2018-06-19T04:11:42.906Z,59.29
2018-06-19T04:14:12.647Z,58.99
2018-06-19T04:16:42.493Z,58.68
2018-06-19T04:19:12.233Z,58.68
2018-06-19T04:21:41.986Z,58.63
2018-06-19T04:24:11.788Z,58.83
2018-06-19T04:26:41.570Z,58.79
2018-06-19T04:29:11.361Z,58.83
2018-06-19T04:31:41.105Z,59.02
2018-06-19T04:34:10.843Z,59.57
2018-06-19T04:36:40.640Z,59.79
2018-06-19T04:39:12.535Z,59.44
2018-06-19T04:41:42.713Z,59.79
2018-06-19T04:44:12.449Z,59.94
2018-06-19T04:46:42.262Z,59.88
2018-06-19T04:49:11.993Z,60.92
2018-06-19T04:51:41.730Z,60.21
2018-06-19T04:54:11.513Z,59.98
2018-06-19T04:56:41.269Z,59.25
2018-06-19T04:59:11.059Z,59.22
2018-06-19T05:01:40.791Z,58.97
2018-06-19T05:04:10.563Z,58.80
2018-06-19T05:06:40.345Z,59.14
2018-06-19T05:09:13.037Z,58.95
2018-06-19T05:11:44.409Z,59.10
2018-06-19T05:14:14.225Z,59.63
2018-06-19T05:16:44.026Z,59.19
2018-06-19T05:19:13.769Z,59.12
2018-06-19T05:21:43.582Z,59.25
2018-06-19T05:24:13.344Z,58.47
2018-06-19T05:26:43.141Z,58.30
2018-06-19T05:29:12.885Z,58.12
2018-06-19T05:31:42.686Z,58.07
2018-06-19T05:34:12.517Z,58.02
2018-06-19T05:36:42.254Z,57.46
2018-06-19T05:39:12.700Z,57.42
2018-06-19T05:41:42.433Z,57.31
2018-06-19T05:44:12.250Z,57.37
2018-06-19T05:46:42.041Z,57.77
2018-06-19T05:49:11.836Z,57.03
2018-06-19T05:51:41.582Z,56.87
2018-06-19T05:54:11.740Z,56.60
2018-06-19T05:56:41.478Z,56.43
2018-06-19T05:59:11.253Z,56.33
2018-06-19T06:01:41.051Z,56.04
2018-06-19T06:04:10.845Z,55.32
2018-06-19T06:06:40.574Z,55.44
2018-06-19T06:09:11.114Z,55.46
2018-06-19T06:11:40.845Z,55.60
2018-06-19T06:14:10.611Z,55.71
2018-06-19T06:16:40.468Z,56.03
2018-06-19T06:19:10.345Z,55.21
2018-06-19T06:21:40.173Z,54.96
2018-06-19T06:24:09.905Z,55.08
2018-06-19T06:26:39.709Z,55.37
2018-06-19T06:29:09.482Z,54.87
2018-06-19T06:31:39.565Z,54.93
2018-06-19T06:34:09.362Z,55.51
2018-06-19T06:36:39.102Z,54.24
2018-06-19T06:39:09.505Z,54.12
2018-06-19T06:41:39.490Z,53.37
2018-06-19T06:44:09.264Z,53.62
2018-06-19T06:46:39.082Z,53.68
2018-06-19T06:49:08.811Z,53.34
2018-06-19T06:51:38.592Z,52.82
2018-06-19T06:54:08.342Z,52.66
2018-06-19T06:56:38.206Z,52.33
2018-06-19T06:59:07.986Z,52.05
2018-06-19T07:01:37.766Z,51.78
2018-06-19T07:04:07.669Z,51.87
2018-06-19T07:06:37.467Z,51.26
2018-06-19T07:09:10.244Z,52.02
2018-06-19T07:11:40.121Z,51.22
2018-06-19T07:14:10.196Z,50.53
2018-06-19T07:16:39.933Z,50.96
2018-06-19T07:19:09.870Z,50.60
2018-06-19T07:21:39.945Z,50.33
2018-06-19T07:24:09.742Z,49.90
2018-06-19T07:26:39.496Z,49.81
2018-06-19T07:29:09.265Z,50.02
2018-06-19T07:31:39.030Z,49.88
2018-06-19T07:34:08.818Z,49.10
2018-06-19T07:36:38.568Z,48.05
2018-06-19T07:39:09.900Z,48.62
2018-06-19T07:41:39.638Z,48.21
2018-06-19T07:44:09.484Z,48.39
2018-06-19T07:46:39.425Z,47.61
2018-06-19T07:49:09.223Z,47.69
2018-06-19T07:51:39.002Z,46.90
2018-06-19T07:54:08.781Z,46.87
2018-06-19T07:56:38.557Z,46.52
2018-06-19T07:59:08.334Z,46.74
2018-06-19T08:01:38.090Z,46.48
2018-06-19T08:04:07.860Z,46.30
2018-06-19T08:06:37.651Z,45.68
2018-06-19T08:09:09.934Z,44.83
2018-06-19T08:11:39.772Z,45.18
2018-06-19T08:14:09.536Z,44.81
2018-06-19T08:16:39.336Z,45.13
2018-06-19T08:19:09.104Z,44.24
2018-06-19T08:21:38.841Z,43.65
2018-06-19T08:24:08.782Z,43.64
2018-06-19T08:26:38.570Z,43.55
2018-06-19T08:29:08.358Z,43.72
2018-06-19T08:31:38.122Z,42.46
2018-06-19T08:34:07.876Z,42.63
2018-06-19T08:36:37.690Z,41.96
2018-06-19T08:39:10.914Z,42.85
2018-06-19T08:41:41.096Z,43.00
2018-06-19T08:44:10.897Z,42.03
2018-06-19T08:46:41.922Z,40.48
2018-06-19T08:49:13.028Z,41.16
2018-06-19T08:51:42.842Z,41.09
2018-06-19T08:54:12.606Z,39.81
2018-06-19T08:56:42.416Z,39.91
2018-06-19T08:59:12.149Z,39.78
2018-06-19T09:01:41.894Z,40.25
2018-06-19T09:04:11.873Z,39.46
2018-06-19T09:06:41.650Z,39.26
2018-06-19T09:09:12.625Z,39.44
2018-06-19T09:11:42.880Z,38.88
2018-06-19T09:14:12.674Z,39.12
2018-06-19T09:16:42.414Z,38.95
2018-06-19T09:19:12.225Z,37.95
2018-06-19T09:21:41.973Z,38.65
2018-06-19T09:24:11.830Z,38.52
2018-06-19T09:26:41.621Z,38.85
2018-06-19T09:29:11.589Z,38.21
2018-06-19T09:31:41.463Z,38.28
2018-06-19T09:34:11.441Z,37.80
2018-06-19T09:36:41.277Z,38.82
2018-06-19T09:39:13.141Z,38.47
2018-06-19T09:41:44.337Z,38.20
2018-06-19T09:44:14.090Z,38.31
2018-06-19T09:46:43.909Z,38.84
2018-06-19T09:49:13.712Z,39.06
2018-06-19T09:51:44.129Z,38.59
2018-06-19T09:54:13.927Z,37.72
2018-06-19T09:56:43.810Z,38.28
2018-06-19T09:59:13.761Z,38.62
2018-06-19T10:01:44.008Z,37.04
2018-06-19T10:04:13.815Z,37.65
2018-06-19T10:06:43.817Z,36.84
2018-06-19T10:09:13.620Z,37.12
2018-06-19T10:11:43.443Z,37.64
2018-06-19T10:14:13.233Z,38.02
2018-06-19T10:16:43.018Z,37.99
2018-06-19T10:19:12.790Z,36.83
2018-06-19T10:21:42.701Z,36.94
2018-06-19T10:24:12.807Z,38.14
2018-06-19T10:26:42.645Z,37.71
2018-06-19T10:29:12.392Z,38.62
2018-06-19T10:31:42.261Z,36.93
2018-06-19T10:34:12.027Z,36.36
2018-06-19T10:36:41.781Z,35.90
2018-06-19T10:39:12.366Z,36.00
2018-06-19T10:41:42.186Z,35.45
2018-06-19T10:44:11.951Z,35.10
2018-06-19T10:46:41.824Z,35.05
2018-06-19T10:49:11.605Z,35.36
2018-06-19T10:51:41.465Z,34.22
2018-06-19T10:54:11.434Z,35.10
2018-06-19T10:56:41.295Z,34.85
2018-06-19T10:59:11.112Z,36.08
2018-06-19T11:01:41.204Z,34.09
2018-06-19T11:04:11.001Z,34.39
2018-06-19T11:06:40.825Z,35.03
2018-06-19T11:09:12.518Z,34.69
2018-06-19T11:11:42.817Z,36.19
2018-06-19T11:14:12.790Z,37.10
2018-06-19T11:16:42.716Z,38.17
2018-06-19T11:19:12.521Z,39.06
2018-06-19T11:21:42.396Z,39.55
2018-06-19T11:24:12.197Z,39.61
2018-06-19T11:26:41.937Z,39.51
2018-06-19T11:29:11.702Z,39.95
2018-06-19T11:31:41.557Z,40.28
2018-06-19T11:34:11.341Z,40.25
2018-06-19T11:36:41.438Z,41.09
2018-06-19T11:39:13.443Z,40.33
2018-06-19T11:41:44.138Z,40.04
2018-06-19T11:44:13.899Z,39.84
2018-06-19T11:46:43.671Z,39.54
2018-06-19T11:49:13.530Z,39.61
2018-06-19T11:51:43.479Z,39.36
2018-06-19T11:54:13.285Z,39.54
2018-06-19T11:56:43.061Z,39.72
2018-06-19T11:59:12.872Z,39.13
2018-06-19T12:01:42.729Z,38.76
2018-06-19T12:04:12.594Z,38.56
2018-06-19T12:06:42.633Z,39.02
2018-06-19T12:09:12.740Z,39.84
2018-06-19T12:11:42.641Z,39.71
2018-06-19T12:14:12.842Z,40.45
2018-06-19T12:16:42.699Z,40.87
2018-06-19T12:19:12.513Z,40.27
2018-06-19T12:21:42.437Z,40.67
2018-06-19T12:24:12.253Z,40.44
2018-06-19T12:26:42.291Z,40.24
2018-06-19T12:29:12.110Z,39.82
2018-06-19T12:31:41.954Z,39.39
2018-06-19T12:34:11.809Z,38.65
2018-06-19T12:36:41.894Z,38.32
2018-06-19T12:39:12.812Z,38.28
2018-06-19T12:41:44.647Z,38.91
2018-06-19T12:44:14.489Z,38.78
2018-06-19T12:46:44.457Z,39.15
2018-06-19T12:49:14.455Z,40.08
2018-06-19T12:51:59.133Z,40.53
2018-06-19T12:54:56.493Z,40.12
2018-06-19T12:57:26.317Z,39.69
2018-06-19T12:59:56.142Z,39.06
2018-06-19T13:02:26.034Z,39.29
2018-06-19T13:05:06.337Z,39.94
2018-06-19T13:07:40.257Z,38.11
2018-06-19T13:10:10.309Z,38.05
2018-06-19T13:13:50.565Z,37.48
2018-06-19T13:16:30.845Z,37.25
2018-06-19T13:19:11.274Z,36.04
2018-06-19T13:21:41.114Z,35.41
2018-06-19T13:24:10.961Z,35.01
2018-06-19T13:26:40.761Z,35.57
2018-06-19T13:29:47.778Z,35.69
2018-06-19T13:32:17.566Z,36.57
2018-06-19T13:34:47.415Z,37.00
2018-06-19T13:37:17.188Z,37.38
2018-06-19T13:39:47.672Z,39.07
2018-06-19T13:42:28.157Z,38.67
2018-06-19T13:45:01.936Z,40.15
2018-06-19T13:47:31.722Z,40.50
2018-06-19T13:50:01.637Z,40.68
2018-06-19T13:52:31.383Z,40.18
2018-06-19T13:56:10.517Z,40.24
2018-06-19T13:58:40.349Z,41.21
2018-06-19T14:01:10.421Z,40.92
2018-06-19T14:03:40.202Z,41.10
2018-06-19T14:06:09.952Z,42.02
2018-06-19T14:08:51.661Z,41.16
2018-06-19T14:11:31.957Z,41.25
2018-06-19T14:14:01.763Z,41.41
2018-06-19T14:16:31.489Z,41.48
2018-06-19T14:19:01.300Z,41.08
2018-06-19T14:21:31.036Z,41.30
2018-06-19T14:24:00.818Z,41.52
2018-06-19T14:26:30.585Z,42.13
2018-06-19T14:29:00.394Z,41.79
2018-06-19T14:31:30.208Z,41.92
2018-06-19T14:34:00.044Z,42.47
2018-06-19T14:36:29.786Z,42.75
2018-06-19T14:38:59.618Z,42.56
2018-06-19T14:41:29.574Z,42.41
2018-06-19T14:43:59.481Z,42.30
2018-06-19T14:46:29.227Z,42.92
2018-06-19T14:48:59.016Z,42.10
2018-06-19T14:51:28.834Z,43.09
2018-06-19T14:53:58.634Z,42.92
2018-06-19T14:56:28.437Z,43.86
2018-06-19T14:58:58.212Z,43.76
2018-06-19T15:01:28.041Z,43.68
2018-06-19T15:03:58.161Z,44.71
2018-06-19T15:06:27.989Z,43.63
2018-06-19T15:08:57.775Z,44.11
2018-06-19T15:11:27.605Z,44.19
2018-06-19T15:13:57.604Z,43.06
2018-06-19T15:16:27.345Z,43.26
2018-06-19T15:18:57.169Z,43.03
2018-06-19T15:21:27.109Z,44.15
2018-06-19T15:23:56.915Z,43.54
2018-06-19T15:26:26.686Z,44.51
2018-06-19T15:28:56.513Z,43.36
2018-06-19T15:31:26.283Z,43.90
2018-06-19T15:33:56.050Z,43.47
2018-06-19T15:36:25.893Z,43.33
2018-06-19T15:38:55.683Z,43.57
2018-06-19T15:41:25.548Z,43.75
2018-06-19T15:43:55.719Z,43.46
2018-06-19T15:46:25.530Z,42.69
2018-06-19T15:48:55.330Z,40.96
2018-06-19T15:51:25.239Z,41.42
2018-06-19T15:53:55.014Z,41.92
2018-06-19T15:56:25.346Z,41.58
2018-06-19T15:58:55.321Z,41.74
2018-06-19T16:01:25.137Z,42.33
2018-06-19T16:03:55.006Z,42.29
2018-06-19T16:06:24.801Z,42.07
2018-06-19T16:08:54.661Z,42.64
2018-06-19T16:11:24.506Z,43.17
2018-06-19T16:13:54.343Z,43.07
2018-06-19T16:16:24.177Z,42.97
2018-06-19T16:18:53.949Z,43.23
2018-06-19T16:21:23.778Z,43.49
2018-06-19T16:23:53.771Z,43.30
2018-06-19T16:26:23.775Z,42.75
2018-06-19T16:28:53.534Z,43.35
2018-06-19T16:31:23.305Z,43.55
2018-06-19T16:33:53.089Z,43.51
2018-06-19T16:36:22.870Z,43.27
2018-06-19T16:38:52.706Z,43.83
2018-06-19T16:41:22.561Z,44.30
2018-06-19T16:43:52.448Z,44.23
2018-06-19T16:46:22.374Z,44.70
2018-06-19T16:48:52.501Z,44.20
2018-06-19T16:51:22.310Z,44.62
2018-06-19T16:53:52.109Z,44.83
2018-06-19T16:56:21.941Z,45.60
2018-06-19T16:58:51.733Z,44.80
2018-06-19T17:01:21.705Z,44.11
2018-06-19T17:03:51.549Z,44.79
2018-06-19T17:06:21.446Z,44.69
2018-06-19T17:08:51.253Z,44.89
2018-06-19T17:11:21.058Z,44.23
2018-06-19T17:13:50.933Z,44.99
2018-06-19T17:16:21.201Z,44.72
2018-06-19T17:18:51.155Z,44.39
2018-06-19T17:21:21.057Z,44.65
2018-06-19T17:23:51.040Z,45.19
2018-06-19T17:26:20.990Z,45.04
2018-06-19T17:28:50.834Z,45.15
2018-06-19T17:31:20.705Z,45.22
2018-06-19T17:33:50.495Z,45.34
2018-06-19T17:36:20.433Z,45.43
2018-06-19T17:38:50.177Z,45.32
2018-06-19T17:41:19.922Z,45.18
2018-06-19T17:43:49.786Z,45.72
2018-06-19T17:46:19.584Z,45.61
2018-06-19T17:48:49.399Z,45.78
2018-06-19T17:51:19.173Z,45.86
2018-06-19T17:53:49.052Z,46.07
2018-06-19T17:56:18.966Z,46.23
2018-06-19T17:58:48.784Z,46.31
2018-06-19T18:01:18.571Z,46.34
2018-06-19T18:03:48.486Z,46.60
2018-06-19T18:06:18.267Z,46.64
2018-06-19T18:08:48.832Z,46.72
2018-06-19T18:11:18.676Z,46.47
2018-06-19T18:13:48.550Z,47.10
2018-06-19T18:16:55.153Z,46.88
2018-06-19T18:19:25.002Z,47.00
2018-06-19T18:21:54.801Z,46.76
2018-06-19T18:24:24.860Z,46.77
2018-06-19T18:26:54.698Z,46.76
2018-06-19T18:29:24.521Z,47.52
2018-06-19T18:31:54.386Z,47.10
2018-06-19T18:34:24.198Z,47.62
2018-06-19T18:36:54.067Z,47.54
2018-06-19T18:39:23.929Z,47.32
2018-06-19T18:41:53.739Z,47.80
2018-06-19T18:44:23.606Z,47.35
2018-06-19T18:46:53.492Z,48.01
2018-06-19T18:49:23.743Z,48.06
2018-06-19T18:51:53.616Z,48.30
2018-06-19T18:54:24.520Z,47.85
2018-06-19T18:56:54.370Z,47.82
2018-06-19T18:59:24.240Z,48.40
2018-06-19T19:01:54.146Z,48.41
2018-06-19T19:04:24.065Z,48.57
2018-06-19T19:06:53.892Z,48.74
2018-06-19T19:09:23.990Z,48.81
2018-06-19T19:11:53.867Z,48.88
2018-06-19T19:14:23.727Z,48.87
2018-06-19T19:16:58.403Z,48.35
2018-06-19T19:19:28.181Z,48.28
2018-06-19T19:21:58.374Z,48.49
2018-06-19T19:24:28.342Z,48.21
2018-06-19T19:27:03.236Z,48.63
2018-06-19T19:29:37.974Z,48.39
2018-06-19T19:32:07.964Z,48.05
2018-06-19T19:34:38.045Z,48.20
2018-06-19T19:37:12.965Z,48.20
2018-06-19T19:39:42.793Z,48.14
2018-06-19T19:42:12.818Z,47.63
2018-06-19T19:44:42.773Z,48.09
2018-06-19T19:47:17.556Z,47.94
2018-06-19T19:49:47.352Z,47.85
2018-06-19T19:52:17.385Z,48.49
2018-06-19T19:54:47.297Z,48.62
2018-06-19T19:57:22.075Z,48.72
2018-06-19T19:59:52.065Z,48.58
2018-06-19T20:02:22.039Z,48.38
2018-06-19T20:04:51.884Z,48.61
2018-06-19T20:07:21.858Z,48.67
2018-06-19T20:09:51.705Z,48.93
2018-06-19T20:12:21.638Z,48.48
2018-06-19T20:14:51.507Z,48.95
2018-06-19T20:17:21.415Z,48.53
2018-06-19T20:19:51.171Z,49.18
2018-06-19T20:22:20.964Z,48.88
2018-06-19T20:24:50.932Z,48.94
2018-06-19T20:27:20.769Z,49.76
2018-06-19T20:29:50.661Z,49.37
2018-06-19T20:32:20.441Z,50.00
2018-06-19T20:34:50.287Z,49.92
2018-06-19T20:37:20.103Z,49.66
2018-06-19T20:39:49.861Z,49.74
2018-06-19T20:42:19.797Z,49.85
2018-06-19T20:44:49.600Z,50.31
2018-06-19T20:47:19.481Z,49.99
2018-06-19T20:49:49.430Z,50.64
2018-06-19T20:52:19.343Z,50.30
2018-06-19T20:54:49.106Z,50.50
2018-06-19T20:57:18.957Z,50.81
2018-06-19T20:59:49.005Z,51.39
2018-06-19T21:02:18.927Z,51.48
2018-06-19T21:04:48.937Z,51.61
2018-06-19T21:07:18.980Z,51.79
2018-06-19T21:09:49.023Z,51.87
2018-06-19T21:12:18.895Z,52.02
2018-06-19T21:14:48.694Z,52.21
2018-06-19T21:17:18.520Z,52.21
2018-06-19T21:19:48.438Z,51.87
2018-06-19T21:22:18.292Z,52.80
2018-06-19T21:24:48.046Z,52.63
2018-06-19T21:27:17.798Z,53.11
2018-06-19T21:29:47.569Z,53.82
2018-06-19T21:32:17.323Z,54.28
2018-06-19T21:34:47.121Z,54.14
2018-06-19T21:37:16.867Z,55.04
2018-06-19T21:39:46.638Z,55.27
2018-06-19T21:42:16.430Z,55.51
2018-06-19T21:44:46.157Z,55.58
2018-06-19T21:47:15.882Z,56.11
2018-06-19T21:49:45.785Z,56.39
2018-06-19T21:52:15.529Z,56.30
2018-06-19T21:54:45.328Z,56.45
2018-06-19T21:57:15.063Z,56.34
2018-06-19T21:59:44.785Z,57.07
2018-06-19T22:02:18.532Z,56.86
2018-06-19T22:04:48.276Z,57.03
2018-06-19T22:07:18.010Z,56.85
2018-06-19T22:09:47.846Z,56.34
2018-06-19T22:12:17.577Z,56.45
2018-06-19T22:14:51.229Z,56.74
2018-06-19T22:17:23.512Z,56.28
2018-06-19T22:19:56.510Z,56.33
2018-06-19T22:22:29.011Z,56.38
2018-06-19T22:27:27.193Z,57.00
2018-06-19T22:29:57.554Z,56.39
2018-06-19T22:32:27.749Z,56.31
2018-06-19T22:34:57.527Z,56.60
2018-06-19T22:37:27.289Z,56.74
2018-06-19T22:39:57.097Z,57.01
2018-06-19T22:42:26.882Z,57.54
2018-06-19T22:44:56.641Z,57.59
2018-06-19T22:47:26.450Z,58.63
2018-06-19T22:49:56.319Z,58.13
2018-06-19T22:52:26.135Z,58.56
2018-06-19T22:54:55.917Z,58.52
2018-06-19T22:57:26.196Z,58.50
2018-06-19T22:59:55.977Z,58.66
2018-06-19T23:02:25.801Z,58.11
2018-06-19T23:04:55.577Z,57.98
2018-06-19T23:07:25.349Z,58.00
2018-06-19T23:09:55.085Z,58.23
2018-06-19T23:12:24.866Z,58.55
2018-06-19T23:14:54.598Z,58.58
2018-06-19T23:17:24.375Z,58.80
2018-06-19T23:19:54.110Z,59.22
2018-06-19T23:22:23.851Z,59.01
2018-06-19T23:24:53.641Z,58.75
2018-06-19T23:27:23.369Z,58.64
2018-06-19T23:29:53.106Z,58.75
2018-06-19T23:32:22.905Z,59.07
2018-06-19T23:34:52.650Z,59.57
2018-06-19T23:37:22.429Z,59.19
2018-06-19T23:39:52.190Z,59.48
2018-06-19T23:42:21.931Z,59.37
2018-06-19T23:44:51.741Z,59.88
2018-06-19T23:47:21.461Z,59.49
2018-06-19T23:49:51.233Z,59.63
2018-06-19T23:52:21.009Z,60.33
2018-06-19T23:54:50.756Z,60.43
2018-06-19T23:57:20.547Z,60.63
2018-06-19T23:59:50.270Z,60.12
